createdAt,value
2023-05-20T03:59:06.163Z,21.13
2023-05-20T04:00:06.104Z,21.18
2023-05-20T04:01:06.103Z,21.11
2023-05-20T04:02:06.200Z,21.18
2023-05-20T04:03:06.168Z,21.22
2023-05-20T04:04:06.090Z,21.13
2023-05-20T04:05:06.078Z,21.25
2023-05-20T04:06:06.055Z,21.18
2023-05-20T04:07:06.060Z,21.34
2023-05-20T04:08:06.030Z,21.19
2023-05-20T04:09:06.028Z,21.25
2023-05-20T04:10:06.032Z,21.25
2023-05-20T04:11:06.035Z,21.28
2023-05-20T04:12:06.017Z,21.30
2023-05-20T04:13:06.021Z,21.33
2023-05-20T04:14:06.044Z,21.31
2023-05-20T04:15:06.020Z,21.37
2023-05-20T04:16:05.997Z,21.37
2023-05-20T04:17:06.204Z,21.43
2023-05-20T04:18:06.035Z,21.43
2023-05-20T04:19:06.038Z,21.40
2023-05-20T04:20:05.989Z,21.51
2023-05-20T04:21:05.985Z,21.46
2023-05-20T04:22:05.960Z,21.46
2023-05-20T04:23:05.967Z,21.43
2023-05-20T04:24:05.971Z,21.53
2023-05-20T04:25:05.978Z,21.53
2023-05-20T04:26:05.978Z,21.53
2023-05-20T04:27:05.970Z,21.66
2023-05-20T04:28:05.980Z,21.59
2023-05-20T04:29:05.954Z,21.58
2023-05-20T04:30:05.984Z,21.66
2023-05-20T04:31:06.093Z,21.66
2023-05-20T04:32:06.080Z,21.64
2023-05-20T04:33:06.003Z,21.66
2023-05-20T04:34:05.934Z,21.70
2023-05-20T04:35:05.939Z,21.74
2023-05-20T04:36:05.921Z,21.73
2023-05-20T04:37:05.914Z,21.73
2023-05-20T04:38:05.937Z,21.76
2023-05-20T04:39:05.920Z,21.78
2023-05-20T04:40:05.919Z,21.78
2023-05-20T04:41:05.907Z,21.80
2023-05-20T04:42:05.903Z,21.77
2023-05-20T04:43:05.939Z,21.82
2023-05-20T04:44:05.923Z,21.82
2023-05-20T04:45:05.962Z,21.83
2023-05-20T04:46:05.944Z,21.86
2023-05-20T04:47:05.897Z,21.89
2023-05-20T04:48:05.929Z,21.93
2023-05-20T04:49:05.909Z,21.90
2023-05-20T04:50:05.900Z,21.93
2023-05-20T04:51:05.919Z,21.96
2023-05-20T04:52:05.874Z,21.96
2023-05-20T04:53:05.863Z,21.96
2023-05-20T04:54:05.894Z,21.93
2023-05-20T04:55:05.864Z,21.94
2023-05-20T04:56:05.894Z,22.07
2023-05-20T04:57:05.846Z,22.09
2023-05-20T04:58:05.867Z,22.04
2023-05-20T04:59:05.855Z,22.05
2023-05-20T05:00:05.866Z,22.12
2023-05-20T05:01:05.895Z,22.08
2023-05-20T05:02:05.849Z,22.15
2023-05-20T05:03:05.908Z,22.24
2023-05-20T05:04:05.862Z,22.11
2023-05-20T05:05:05.952Z,22.18
2023-05-20T05:06:05.853Z,22.22
2023-05-20T05:07:05.821Z,22.26
2023-05-20T05:08:05.816Z,22.29
2023-05-20T05:09:05.826Z,22.20
2023-05-20T05:10:05.824Z,22.29
2023-05-20T05:11:05.816Z,22.26
2023-05-20T05:12:05.807Z,22.31
2023-05-20T05:13:05.830Z,22.31
2023-05-20T05:14:05.797Z,22.34
2023-05-20T05:15:05.819Z,22.34
2023-05-20T05:16:05.854Z,22.38
2023-05-20T05:17:05.800Z,22.39
2023-05-20T05:18:05.891Z,22.38
2023-05-20T05:19:05.857Z,22.46
2023-05-20T05:20:05.804Z,22.45
2023-05-20T05:21:05.798Z,22.45
2023-05-20T05:22:05.774Z,22.44
2023-05-20T05:23:05.771Z,22.45
2023-05-20T05:24:05.809Z,22.51
2023-05-20T05:25:05.796Z,22.46
2023-05-20T05:26:05.786Z,22.46
2023-05-20T05:27:05.797Z,22.51
2023-05-20T05:28:05.785Z,22.51
2023-05-20T05:29:05.762Z,22.49
2023-05-20T05:30:05.775Z,22.57
2023-05-20T05:31:05.811Z,22.60
2023-05-20T05:32:05.774Z,22.66
2023-05-20T05:33:05.938Z,22.59
2023-05-20T05:34:05.745Z,22.54
2023-05-20T05:35:08.053Z,22.61
2023-05-20T05:36:05.740Z,22.64
2023-05-20T05:37:05.755Z,22.70
2023-05-20T05:38:05.742Z,22.70
2023-05-20T05:39:05.725Z,22.82
2023-05-20T05:40:05.733Z,22.71
2023-05-20T05:41:05.715Z,22.79
2023-05-20T05:42:05.727Z,22.79
2023-05-20T05:43:05.719Z,22.81
2023-05-20T05:44:05.743Z,22.84
2023-05-20T05:45:05.746Z,22.96
2023-05-20T05:46:05.748Z,22.92
2023-05-20T05:47:05.845Z,22.88
2023-05-20T05:48:05.817Z,23.01
2023-05-20T05:49:05.712Z,23.03
2023-05-20T05:50:05.725Z,23.01
2023-05-20T05:51:05.759Z,23.04
2023-05-20T05:52:05.701Z,23.03
2023-05-20T05:53:05.700Z,23.07
2023-05-20T05:54:05.746Z,23.09
2023-05-20T05:55:05.706Z,23.18
2023-05-20T05:56:05.722Z,23.09
2023-05-20T05:57:06.602Z,23.10
2023-05-20T05:58:05.698Z,23.16
2023-05-20T05:59:05.677Z,23.19
2023-05-20T06:00:05.678Z,23.22
2023-05-20T06:01:05.724Z,23.19
2023-05-20T06:02:05.690Z,23.21
2023-05-20T06:03:05.769Z,23.22
2023-05-20T06:04:05.754Z,23.26
2023-05-20T06:05:05.665Z,23.25
2023-05-20T06:06:05.688Z,23.37
2023-05-20T06:07:05.684Z,23.41
2023-05-20T06:08:05.694Z,23.42
2023-05-20T06:09:05.661Z,23.37
2023-05-20T06:10:05.651Z,23.41
2023-05-20T06:11:05.677Z,23.47
2023-05-20T06:12:05.655Z,23.40
2023-05-20T06:13:05.655Z,23.42
2023-05-20T06:14:05.641Z,23.48
2023-05-20T06:15:05.645Z,23.53
2023-05-20T06:16:05.665Z,23.57
2023-05-20T06:17:05.750Z,23.64
2023-05-20T06:18:05.669Z,23.56
2023-05-20T06:19:05.750Z,23.57
2023-05-20T06:20:05.657Z,23.59
2023-05-20T06:21:05.643Z,23.64
2023-05-20T06:22:05.628Z,23.62
2023-05-20T06:23:05.675Z,23.66
2023-05-20T06:24:05.644Z,23.60
2023-05-20T06:25:05.622Z,23.67
2023-05-20T06:26:05.624Z,23.62
2023-05-20T06:27:05.628Z,23.66
2023-05-20T06:28:05.615Z,23.70
2023-05-20T06:29:05.617Z,23.70
2023-05-20T06:30:05.616Z,23.72
2023-05-20T06:31:05.644Z,23.74
2023-05-20T06:32:05.608Z,23.77
2023-05-20T06:33:05.721Z,23.79
2023-05-20T06:34:05.609Z,23.81
2023-05-20T06:35:05.614Z,23.94
2023-05-20T06:36:05.617Z,23.99
2023-05-20T06:37:05.599Z,23.93
2023-05-20T06:38:05.631Z,23.93
2023-05-20T06:39:05.628Z,24.00
2023-05-20T06:40:05.605Z,24.07
2023-05-20T06:41:05.592Z,24.09
2023-05-20T06:42:05.639Z,24.18
2023-05-20T06:43:05.609Z,24.17
2023-05-20T06:44:05.582Z,24.12
2023-05-20T06:45:05.595Z,24.22
2023-05-20T06:46:05.602Z,24.22
2023-05-20T06:47:05.596Z,24.27
2023-05-20T06:48:05.690Z,24.29
2023-05-20T06:49:05.641Z,24.32
2023-05-20T06:50:05.575Z,24.42
2023-05-20T06:51:05.630Z,24.40
2023-05-20T06:53:38.120Z,24.48
2023-05-20T06:54:38.133Z,24.54
2023-05-20T06:55:38.098Z,24.58
2023-05-20T06:56:38.093Z,24.56
2023-05-20T06:57:38.105Z,24.61
2023-05-20T06:58:38.108Z,24.64
2023-05-20T06:59:38.104Z,24.66
2023-05-20T07:00:38.095Z,24.74
2023-05-20T07:01:38.141Z,24.80
2023-05-20T07:02:38.113Z,24.75
2023-05-20T07:03:38.153Z,24.85
2023-05-20T07:04:38.092Z,24.80
2023-05-20T07:05:38.099Z,24.74
2023-05-20T07:06:38.124Z,24.80
2023-05-20T07:07:38.085Z,24.92
2023-05-20T07:08:38.077Z,24.92
2023-05-20T07:09:38.092Z,25.00
2023-05-20T07:10:38.118Z,24.93
2023-05-20T07:11:38.092Z,25.02
2023-05-20T07:12:38.084Z,25.04
2023-05-20T07:13:38.086Z,25.01
2023-05-20T07:14:38.073Z,25.04
2023-05-20T07:15:38.102Z,25.09
2023-05-20T07:16:38.087Z,25.07
2023-05-20T07:17:38.127Z,25.09
2023-05-20T07:18:38.096Z,25.17
2023-05-20T07:19:38.087Z,25.15
2023-05-20T07:20:38.108Z,25.15
2023-05-20T07:21:38.080Z,25.26
2023-05-20T07:22:38.072Z,25.15
2023-05-20T07:23:38.095Z,25.32
2023-05-20T07:24:38.075Z,25.30
2023-05-20T07:25:38.097Z,25.29
2023-05-20T07:26:38.765Z,25.30
2023-05-20T07:27:38.073Z,25.32
2023-05-20T07:28:38.076Z,25.30
2023-05-20T07:29:38.070Z,25.37
2023-05-20T07:30:38.082Z,25.37
2023-05-20T07:31:38.128Z,25.41
2023-05-20T07:32:38.141Z,25.33
2023-05-20T07:33:38.081Z,25.38
2023-05-20T07:34:38.116Z,25.44
2023-05-20T07:35:38.091Z,25.47
2023-05-20T07:36:38.062Z,25.45
2023-05-20T07:37:38.092Z,25.56
2023-05-20T07:38:39.545Z,25.57
2023-05-20T07:39:38.069Z,25.51
2023-05-20T07:40:38.072Z,25.54
2023-05-20T07:41:38.068Z,25.56
2023-05-20T07:42:38.083Z,25.64
2023-05-20T07:43:38.087Z,25.59
2023-05-20T07:44:38.068Z,25.66
2023-05-20T07:45:38.140Z,25.64
2023-05-20T07:46:38.168Z,25.78
2023-05-20T07:47:38.126Z,25.71
2023-05-20T07:48:38.103Z,25.82
2023-05-20T07:49:38.107Z,25.79
2023-05-20T07:50:38.112Z,25.82
2023-05-20T07:51:38.106Z,25.85
2023-05-20T07:52:51.750Z,25.84
2023-05-20T07:53:38.062Z,25.88
2023-05-20T07:54:38.108Z,25.86
2023-05-20T07:55:38.071Z,25.85
2023-05-20T07:56:38.072Z,25.99
2023-05-20T07:57:38.085Z,26.00
2023-05-20T07:58:38.069Z,25.96
2023-05-20T07:59:38.079Z,25.97
2023-05-20T08:00:38.069Z,25.99
2023-05-20T08:01:38.088Z,26.03
2023-05-20T08:02:38.182Z,25.99
2023-05-20T08:03:38.251Z,26.00
2023-05-20T08:04:38.109Z,26.03
2023-05-20T08:05:38.066Z,26.07
2023-05-20T08:06:38.057Z,26.15
2023-05-20T08:07:38.090Z,26.11
2023-05-20T08:08:38.073Z,26.16
2023-05-20T08:09:38.070Z,26.17
2023-05-20T08:10:38.070Z,26.17
2023-05-20T08:11:38.075Z,26.16
2023-05-20T08:12:38.055Z,26.11
2023-05-20T08:13:38.060Z,26.23
2023-05-20T08:14:38.074Z,26.22
2023-05-20T08:15:38.085Z,26.30
2023-05-20T08:16:38.112Z,26.32
2023-05-20T08:17:39.019Z,26.27
2023-05-20T08:18:38.118Z,26.38
2023-05-20T08:19:38.097Z,26.34
2023-05-20T08:20:38.079Z,26.35
2023-05-20T08:21:38.058Z,26.37
2023-05-20T08:22:38.060Z,26.35
2023-05-20T08:23:40.368Z,26.44
2023-05-20T08:24:38.098Z,26.38
2023-05-20T08:25:38.070Z,26.37
2023-05-20T08:26:38.072Z,26.45
2023-05-20T08:27:38.065Z,26.44
2023-05-20T08:28:38.151Z,26.42
2023-05-20T08:29:38.073Z,26.52
2023-05-20T08:30:38.081Z,26.50
2023-05-20T08:31:38.226Z,26.52
2023-05-20T08:32:38.078Z,26.53
2023-05-20T08:33:38.064Z,26.45
2023-05-20T08:34:38.083Z,26.60
2023-05-20T08:35:38.100Z,26.64
2023-05-20T08:36:38.090Z,26.60
2023-05-20T08:37:38.092Z,26.61
2023-05-20T08:38:38.083Z,26.61
2023-05-20T08:39:38.112Z,26.63
2023-05-20T08:40:38.074Z,26.64
2023-05-20T08:41:38.065Z,26.69
2023-05-20T08:42:38.083Z,26.74
2023-05-20T08:43:38.053Z,26.74
2023-05-20T08:44:38.071Z,26.75
2023-05-20T08:45:38.075Z,26.75
2023-05-20T08:46:38.183Z,26.75
2023-05-20T08:47:38.103Z,26.72
2023-05-20T08:48:38.127Z,26.76
2023-05-20T08:49:38.100Z,26.81
2023-05-20T08:50:38.086Z,26.82
2023-05-20T08:51:38.093Z,26.84
2023-05-20T08:52:38.087Z,26.75
2023-05-20T08:53:38.114Z,26.87
2023-05-20T08:54:38.083Z,26.82
2023-05-20T08:55:38.112Z,26.81
2023-05-20T08:56:38.083Z,26.90
2023-05-20T08:57:38.098Z,26.86
2023-05-20T08:58:38.121Z,26.91
2023-05-20T08:59:38.083Z,26.82
2023-05-20T09:00:38.088Z,26.90
2023-05-20T09:01:38.124Z,26.86
2023-05-20T09:02:38.175Z,26.86
2023-05-20T09:03:38.135Z,26.96
2023-05-20T09:04:38.121Z,26.96
2023-05-20T09:05:38.090Z,26.93
2023-05-20T09:06:38.113Z,26.93
2023-05-20T09:07:38.097Z,26.97
2023-05-20T09:09:38.099Z,27.00
2023-05-20T09:10:38.090Z,27.01
2023-05-20T09:11:38.088Z,27.05
2023-05-20T09:12:38.099Z,27.06
2023-05-20T09:13:38.146Z,27.09
2023-05-20T09:14:38.092Z,27.06
2023-05-20T09:15:38.098Z,27.19
2023-05-20T09:16:38.181Z,27.19
2023-05-20T09:17:38.137Z,27.15
2023-05-20T09:18:38.113Z,27.21
2023-05-20T09:19:38.119Z,27.23
2023-05-20T09:20:38.127Z,27.27
2023-05-20T09:21:38.095Z,27.28
2023-05-20T09:22:38.090Z,27.28
2023-05-20T09:23:38.101Z,27.33
2023-05-20T09:24:38.101Z,27.30
2023-05-20T09:25:38.127Z,27.48
2023-05-20T09:26:38.101Z,27.48
2023-05-20T09:27:38.103Z,27.48
2023-05-20T09:28:38.092Z,27.41
2023-05-20T09:29:38.125Z,27.53
2023-05-20T09:30:38.106Z,27.52
2023-05-20T09:31:38.126Z,27.49
2023-05-20T09:32:38.181Z,27.53
2023-05-20T09:33:38.113Z,27.55
2023-05-20T09:34:38.114Z,27.53
2023-05-20T09:35:38.134Z,27.49
2023-05-20T09:36:38.128Z,27.49
2023-05-20T09:37:38.102Z,27.51
2023-05-20T09:38:38.291Z,27.53
2023-05-20T09:39:38.097Z,27.62
2023-05-20T09:40:38.191Z,27.61
2023-05-20T09:41:38.121Z,27.59
2023-05-20T09:42:38.122Z,27.61
2023-05-20T09:43:38.119Z,27.61
2023-05-20T09:44:38.128Z,27.72
2023-05-20T09:45:38.146Z,27.71
2023-05-20T09:46:38.179Z,27.61
2023-05-20T09:47:38.181Z,27.61
2023-05-20T09:48:38.140Z,27.65
2023-05-20T09:49:38.130Z,27.62
2023-05-20T09:50:38.131Z,27.72
2023-05-20T09:51:38.129Z,27.75
2023-05-20T09:52:38.171Z,27.71
2023-05-20T09:53:38.156Z,27.69
2023-05-20T09:54:38.117Z,27.79
2023-05-20T09:55:38.253Z,27.83
2023-05-20T09:56:38.121Z,27.80
2023-05-20T09:57:38.128Z,27.89
2023-05-20T09:58:38.157Z,27.90
2023-05-20T09:59:38.145Z,27.86
2023-05-20T10:00:38.131Z,27.81
2023-05-20T10:01:38.154Z,27.90
2023-05-20T10:13:25.584Z,27.96
2023-05-20T10:14:25.524Z,27.99
2023-05-20T10:15:25.521Z,28.01
2023-05-20T10:16:25.554Z,27.93
2023-05-20T10:17:25.601Z,27.94
2023-05-20T10:18:25.490Z,27.94
2023-05-20T10:19:25.577Z,28.02
2023-05-20T10:20:25.498Z,28.01
2023-05-20T10:21:25.491Z,28.02
2023-05-20T10:22:25.492Z,28.05
2023-05-20T10:23:25.529Z,28.03
2023-05-20T10:24:25.514Z,28.05
2023-05-20T10:25:25.515Z,28.08
2023-05-20T10:26:25.514Z,28.20
2023-05-20T10:27:25.500Z,28.11
2023-05-20T10:28:25.506Z,28.23
2023-05-20T10:29:25.538Z,28.26
2023-05-20T10:30:25.515Z,28.20
2023-05-20T10:31:25.529Z,28.26
2023-05-20T10:32:25.572Z,28.31
2023-05-20T10:33:25.525Z,28.31
2023-05-20T10:34:25.504Z,28.43
2023-05-20T10:35:25.507Z,28.39
2023-05-20T10:36:25.525Z,28.49
2023-05-20T10:37:25.529Z,28.51
2023-05-20T10:38:25.531Z,28.53
2023-05-20T10:39:25.513Z,28.58
2023-05-20T10:40:25.541Z,28.58
2023-05-20T10:41:25.534Z,28.61
2023-05-20T10:42:25.520Z,28.65
2023-05-20T10:43:25.520Z,28.55
2023-05-20T10:44:25.534Z,28.58
2023-05-20T10:45:25.557Z,28.65
2023-05-20T10:46:34.964Z,28.55
2023-05-20T10:47:26.471Z,28.63
2023-05-20T10:48:25.622Z,28.67
2023-05-20T10:49:27.750Z,28.58
2023-05-20T10:50:25.555Z,28.64
2023-05-20T10:51:25.552Z,28.67
2023-05-20T10:52:25.578Z,28.60
2023-05-20T10:53:33.535Z,28.73
2023-05-20T10:54:25.573Z,28.72
2023-05-20T10:55:25.562Z,28.67
2023-05-20T10:56:25.573Z,28.70
2023-05-20T10:57:25.554Z,28.70
2023-05-20T10:58:25.558Z,28.79
2023-05-20T10:59:25.570Z,28.83
2023-05-20T11:00:25.585Z,28.80
2023-05-20T11:01:25.679Z,28.80
2023-05-20T11:02:25.576Z,28.80
2023-05-20T11:03:25.674Z,28.83
2023-05-20T11:04:25.574Z,28.92
2023-05-20T11:05:25.570Z,28.92
2023-05-20T11:06:25.581Z,28.94
2023-05-20T11:07:25.567Z,28.90
2023-05-20T11:08:29.502Z,29.05
2023-05-20T11:09:25.578Z,29.08
2023-05-20T11:10:25.584Z,29.10
2023-05-20T11:11:25.608Z,29.13
2023-05-20T11:12:25.596Z,29.21
2023-05-20T11:13:25.867Z,29.28
2023-05-20T11:14:25.601Z,29.36
2023-05-20T11:15:25.615Z,29.43
2023-05-20T11:16:25.683Z,29.39
2023-05-20T11:17:25.644Z,29.50
2023-05-20T11:18:25.594Z,29.55
2023-05-20T11:19:25.696Z,29.60
2023-05-20T11:20:25.601Z,29.60
2023-05-20T11:21:25.609Z,29.67
2023-05-20T11:22:25.636Z,29.67
2023-05-20T11:23:25.636Z,29.66
2023-05-20T11:24:25.649Z,29.65
2023-05-20T11:25:25.640Z,29.60
2023-05-20T11:26:25.623Z,29.60
2023-05-20T11:27:25.621Z,29.63
2023-05-20T11:28:25.711Z,29.61
2023-05-20T11:29:25.624Z,29.61
2023-05-20T11:30:25.650Z,29.60
2023-05-20T11:31:25.721Z,29.54
2023-05-20T11:32:25.815Z,29.61
2023-05-20T11:33:25.665Z,29.50
2023-05-20T11:34:27.284Z,29.63
2023-05-20T11:35:25.650Z,29.51
2023-05-20T11:36:28.174Z,29.45
2023-05-20T11:37:25.647Z,29.43
2023-05-20T11:38:25.658Z,29.45
2023-05-20T11:39:25.668Z,29.45
2023-05-20T11:40:27.108Z,29.35
2023-05-20T11:41:25.658Z,29.40
2023-05-20T11:42:25.684Z,29.40
2023-05-20T11:43:25.665Z,29.24
2023-05-20T11:44:25.683Z,29.23
2023-05-20T11:45:25.681Z,29.13
2023-05-20T11:46:25.706Z,29.11
2023-05-20T11:47:25.726Z,29.06
2023-05-20T11:48:25.698Z,29.11
2023-05-20T11:49:25.705Z,29.14
2023-05-20T11:50:25.671Z,28.97
2023-05-20T11:51:25.686Z,28.97
2023-05-20T11:52:25.706Z,28.90
2023-05-20T11:53:25.688Z,28.86
2023-05-20T11:54:25.692Z,28.83
2023-05-20T11:55:25.693Z,28.82
2023-05-20T11:56:25.704Z,28.83
2023-05-20T11:57:25.736Z,28.70
2023-05-20T11:58:25.711Z,28.72
2023-05-20T11:59:25.722Z,28.68
2023-05-20T12:00:27.637Z,28.58
2023-05-20T12:01:25.999Z,28.64
2023-05-20T12:02:25.777Z,28.67
2023-05-20T12:03:25.879Z,28.45
2023-05-20T12:04:25.779Z,28.49
2023-05-20T12:05:25.725Z,28.45
2023-05-20T12:06:25.704Z,28.42
2023-05-20T12:07:25.700Z,28.30
2023-05-20T12:08:25.737Z,28.30
2023-05-20T12:09:25.714Z,28.23
2023-05-20T12:10:25.697Z,28.39
2023-05-20T12:11:25.705Z,28.16
2023-05-20T12:12:25.707Z,28.20
2023-05-20T12:13:25.728Z,28.16
2023-05-20T12:14:25.708Z,28.05
2023-05-20T12:15:25.704Z,27.98
2023-05-20T12:16:25.752Z,28.03
2023-05-20T12:17:25.752Z,28.02
2023-05-20T12:18:25.718Z,28.01
2023-05-20T12:19:25.801Z,27.91
2023-05-20T12:20:25.707Z,27.84
2023-05-20T12:21:25.769Z,27.83
2023-05-20T12:22:25.743Z,27.86
2023-05-20T12:23:25.725Z,27.80
2023-05-20T12:24:25.733Z,27.76
2023-05-20T12:25:25.721Z,27.79
2023-05-20T12:26:25.779Z,27.84
2023-05-20T12:27:25.724Z,27.90
2023-05-20T12:28:25.741Z,28.02
2023-05-20T12:29:25.738Z,27.98
2023-05-20T12:30:25.738Z,28.06
2023-05-20T12:31:25.776Z,27.99
2023-05-20T12:32:25.754Z,28.14
2023-05-20T12:33:25.717Z,28.17
2023-05-20T12:34:25.753Z,28.12
2023-05-20T12:35:25.745Z,28.14
2023-05-20T12:36:25.730Z,28.16
2023-05-20T12:37:25.737Z,28.14
2023-05-20T12:38:25.742Z,28.03
2023-05-20T12:39:25.781Z,28.02
2023-05-20T12:40:25.720Z,28.06
2023-05-20T12:41:25.720Z,28.02
2023-05-20T12:42:25.727Z,28.02
2023-05-20T12:43:25.733Z,27.99
2023-05-20T12:44:25.744Z,27.93
2023-05-20T12:45:25.727Z,28.02
2023-05-20T12:46:25.748Z,27.90
2023-05-20T12:47:25.833Z,27.90
2023-05-20T12:48:25.728Z,27.86
2023-05-20T12:49:25.736Z,27.91
2023-05-20T12:50:25.755Z,27.79
2023-05-20T12:51:25.743Z,27.76
2023-05-20T12:52:25.744Z,27.72
2023-05-20T12:53:25.769Z,27.72
2023-05-20T12:54:25.756Z,27.68
2023-05-20T12:55:25.898Z,27.55
2023-05-20T12:56:25.734Z,27.55
2023-05-20T12:57:25.737Z,27.62
2023-05-20T12:58:25.735Z,27.64
2023-05-20T12:59:25.749Z,27.68
2023-05-20T13:00:25.755Z,27.71
2023-05-20T13:01:25.787Z,27.65
2023-05-20T13:02:25.840Z,27.72
2023-05-20T13:03:25.776Z,27.72
2023-05-20T13:04:25.748Z,27.66
2023-05-20T13:05:25.766Z,27.66
2023-05-20T13:06:25.742Z,27.71
2023-05-20T13:07:25.759Z,27.69
2023-05-20T13:08:26.622Z,27.68
2023-05-20T13:09:25.761Z,27.72
2023-05-20T13:10:25.766Z,27.72
2023-05-20T13:11:25.775Z,27.72
2023-05-20T13:12:25.758Z,27.71
2023-05-20T13:13:25.772Z,27.87
2023-05-20T13:14:25.782Z,27.90
2023-05-20T13:15:25.776Z,28.02
2023-05-20T13:16:25.834Z,28.20
2023-05-20T13:17:25.791Z,28.28
2023-05-20T13:18:25.755Z,28.41
2023-05-20T13:19:25.814Z,28.58
2023-05-20T13:20:25.763Z,28.75
2023-05-20T13:21:25.756Z,28.98
2023-05-20T13:22:25.780Z,29.29
2023-05-20T13:23:25.773Z,29.50
2023-05-20T13:24:25.762Z,29.52
2023-05-20T13:25:25.784Z,29.60
2023-05-20T13:26:25.769Z,30.07
2023-05-20T13:27:25.819Z,30.37
2023-05-20T13:28:25.771Z,30.73
2023-05-20T13:29:25.776Z,30.73
2023-05-20T13:30:25.781Z,30.81
2023-05-20T13:31:25.845Z,30.94
2023-05-20T13:32:25.832Z,30.85
2023-05-20T13:33:25.784Z,30.91
2023-05-20T13:34:25.781Z,30.77
2023-05-20T13:35:25.788Z,30.64
2023-05-20T13:36:25.792Z,30.64
2023-05-20T13:37:25.820Z,30.67
2023-05-20T13:38:25.802Z,30.73
2023-05-20T13:39:25.792Z,30.71
2023-05-20T13:40:25.801Z,30.66
2023-05-20T13:41:25.828Z,30.54
2023-05-20T13:42:25.815Z,30.51
2023-05-20T13:43:25.821Z,30.32
2023-05-20T13:44:25.834Z,30.24
2023-05-20T13:45:25.847Z,30.22
2023-05-20T13:46:25.827Z,30.18
2023-05-20T13:47:25.954Z,30.04
2023-05-20T13:48:25.828Z,29.95
2023-05-20T13:49:25.829Z,29.89
2023-05-20T13:50:25.819Z,29.81
2023-05-20T13:51:25.841Z,29.79
2023-05-20T13:52:25.878Z,29.66
2023-05-20T13:53:25.840Z,29.61
2023-05-20T13:54:25.891Z,29.61
2023-05-20T13:55:25.847Z,29.84
2023-05-20T13:56:25.872Z,30.25
2023-05-20T13:57:25.917Z,30.31
2023-05-20T14:19:52.192Z,32.54
2023-05-20T14:20:52.111Z,32.43
2023-05-20T14:21:52.108Z,32.27
2023-05-20T14:22:52.130Z,32.25
2023-05-20T14:23:52.121Z,32.25
2023-05-20T14:24:52.118Z,32.25
2023-05-20T14:25:52.109Z,32.10
2023-05-20T14:26:52.117Z,31.94
2023-05-20T14:27:52.136Z,31.74
2023-05-20T14:28:52.136Z,31.58
2023-05-20T14:29:52.136Z,31.49
2023-05-20T14:30:52.139Z,31.26
2023-05-20T14:31:52.212Z,31.25
2023-05-20T14:32:52.207Z,31.10
2023-05-20T14:33:52.161Z,30.93
2023-05-20T14:34:52.158Z,30.84
2023-05-20T14:35:52.192Z,30.85
2023-05-20T14:36:52.142Z,30.70
2023-05-20T14:37:52.178Z,30.56
2023-05-20T14:38:52.176Z,30.52
2023-05-20T14:39:52.162Z,30.32
2023-05-20T14:40:52.163Z,30.26
2023-05-20T14:41:52.172Z,30.26
2023-05-20T14:42:52.166Z,30.09
2023-05-20T14:43:52.170Z,30.04
2023-05-20T14:44:52.209Z,29.94
2023-05-20T14:45:52.236Z,29.89
2023-05-20T14:46:52.213Z,29.84
2023-05-20T14:47:52.296Z,29.82
2023-05-20T14:48:52.227Z,29.81
2023-05-20T14:49:52.186Z,29.82
2023-05-20T14:50:52.210Z,29.77
2023-05-20T14:51:52.219Z,29.70
2023-05-20T14:52:52.181Z,29.72
2023-05-20T14:53:52.213Z,29.58
2023-05-20T14:54:52.193Z,29.57
2023-05-20T14:55:52.202Z,29.54
2023-05-20T14:56:52.196Z,29.52
2023-05-20T14:57:52.205Z,29.39
2023-05-20T14:58:52.221Z,29.36
2023-05-20T14:59:52.200Z,29.35
2023-05-20T15:00:52.223Z,29.24
2023-05-20T15:01:52.267Z,29.15
2023-05-20T15:02:52.268Z,29.15
2023-05-20T15:03:52.204Z,29.05
2023-05-20T15:04:52.226Z,29.10
2023-05-20T15:05:52.212Z,29.02
2023-05-20T15:06:52.213Z,28.98
2023-05-20T15:07:52.252Z,28.92
2023-05-20T15:08:52.217Z,28.86
2023-05-20T15:09:52.241Z,28.91
2023-05-20T15:10:52.221Z,28.86
2023-05-20T15:11:52.227Z,28.79
2023-05-20T15:12:52.219Z,28.75
2023-05-20T15:13:52.263Z,28.67
2023-05-20T15:14:52.233Z,28.63
2023-05-20T15:15:52.223Z,28.60
2023-05-20T15:16:52.264Z,28.53
2023-05-20T15:17:52.300Z,28.51
2023-05-20T15:18:52.265Z,28.43
2023-05-20T15:19:52.242Z,28.45
2023-05-20T15:20:52.236Z,28.33
2023-05-20T15:21:52.226Z,28.28
2023-05-20T15:22:52.247Z,28.23
2023-05-20T15:23:52.289Z,28.27
2023-05-20T15:24:52.249Z,28.26
2023-05-20T15:25:52.238Z,28.11
2023-05-20T15:26:52.235Z,28.05
2023-05-20T15:27:52.256Z,27.99
2023-05-20T15:28:52.263Z,28.02
2023-05-20T15:29:52.245Z,27.89
2023-05-20T15:30:52.255Z,27.91
2023-05-20T15:31:52.242Z,27.89
2023-05-20T15:32:52.271Z,27.80
2023-05-20T15:33:52.283Z,27.87
2023-05-20T15:34:52.244Z,27.76
2023-05-20T15:35:52.260Z,27.75
2023-05-20T15:36:52.257Z,27.79
2023-05-20T15:37:52.247Z,27.71
2023-05-20T15:38:52.268Z,27.61
2023-05-20T15:39:52.278Z,27.59
2023-05-20T15:40:52.246Z,27.55
2023-05-20T15:41:52.247Z,27.52
2023-05-20T15:42:52.249Z,27.53
2023-05-20T15:43:52.278Z,27.48
2023-05-20T15:44:52.270Z,27.49
2023-05-20T15:45:52.293Z,27.41
2023-05-20T15:46:52.244Z,27.37
2023-05-20T15:47:52.295Z,27.31
2023-05-20T15:48:52.252Z,27.26
2023-05-20T15:49:52.246Z,27.27
2023-05-20T15:50:52.252Z,27.23
2023-05-20T15:52:02.339Z,27.19
2023-05-20T15:52:52.334Z,27.19
2023-05-20T15:53:52.264Z,26.99
2023-05-20T15:54:52.250Z,27.01
2023-05-20T15:55:52.292Z,26.99
2023-05-20T15:56:52.252Z,26.90
2023-05-20T15:57:52.270Z,26.90
2023-05-20T15:58:52.258Z,26.84
2023-05-20T15:59:52.266Z,26.86
2023-05-20T16:00:52.256Z,26.75
2023-05-20T16:01:52.279Z,26.75
2023-05-20T16:02:52.319Z,26.59
2023-05-20T16:03:54.546Z,26.67
2023-05-20T16:04:52.304Z,26.57
2023-05-20T16:05:52.273Z,26.59
2023-05-20T16:06:52.247Z,26.60
2023-05-20T16:07:52.254Z,26.60
2023-05-20T16:08:52.271Z,26.49
2023-05-20T16:09:52.260Z,26.54
2023-05-20T16:10:52.272Z,26.47
2023-05-20T16:11:52.266Z,26.47
2023-05-20T16:12:52.249Z,26.38
2023-05-20T16:13:52.275Z,26.37
2023-05-20T16:14:52.275Z,26.38
2023-05-20T16:15:52.385Z,26.32
2023-05-20T16:16:52.264Z,26.34
2023-05-20T16:28:29.987Z,26.00
2023-05-20T16:29:29.961Z,25.97
2023-05-20T16:30:29.950Z,25.91
2023-05-20T16:31:29.999Z,26.00
2023-05-20T16:32:30.050Z,25.93
2023-05-20T16:33:29.934Z,25.88
2023-05-20T16:34:29.961Z,25.79
2023-05-20T16:35:29.930Z,25.75
2023-05-20T16:36:29.928Z,25.78
2023-05-20T16:37:29.953Z,25.86
2023-05-20T16:38:29.926Z,25.79
2023-05-20T16:39:29.918Z,25.75
2023-05-20T16:40:29.926Z,25.75
2023-05-20T16:41:29.928Z,25.71
2023-05-20T16:42:29.925Z,25.71
2023-05-20T16:43:29.926Z,25.67
2023-05-20T16:44:29.943Z,25.70
2023-05-20T16:45:29.941Z,25.66
2023-05-20T16:46:29.941Z,25.66
2023-05-20T16:47:29.930Z,25.52
2023-05-20T16:48:29.912Z,25.62
2023-05-20T16:49:29.939Z,25.64
2023-05-20T16:50:29.916Z,25.57
2023-05-20T16:51:29.922Z,25.60
2023-05-20T16:52:29.940Z,25.56
2023-05-20T16:53:29.900Z,25.60
2023-05-20T16:54:29.905Z,25.49
2023-05-20T16:55:29.902Z,25.59
2023-05-20T16:56:29.903Z,25.57
2023-05-20T16:57:29.909Z,25.54
2023-05-20T16:58:29.921Z,25.51
2023-05-20T16:59:29.907Z,25.47
2023-05-20T17:00:29.934Z,25.44
2023-05-20T17:01:29.983Z,25.45
2023-05-20T17:02:29.939Z,25.44
2023-05-20T17:03:29.893Z,25.39
2023-05-20T17:04:29.923Z,25.42
2023-05-20T17:05:29.895Z,25.34
2023-05-20T17:06:29.890Z,25.33
2023-05-20T17:07:29.887Z,25.32
2023-05-20T17:08:29.896Z,25.41
2023-05-20T17:09:29.939Z,25.33
2023-05-20T17:10:29.896Z,25.33
2023-05-20T17:11:29.886Z,25.33
2023-05-20T17:12:29.883Z,25.33
2023-05-20T17:13:29.898Z,25.27
2023-05-20T17:14:29.889Z,25.23
2023-05-20T17:15:29.915Z,25.29
2023-05-20T17:16:29.986Z,25.24
2023-05-20T17:17:29.895Z,25.17
2023-05-20T17:18:29.879Z,25.15
2023-05-20T17:19:29.934Z,25.15
2023-05-20T17:20:29.892Z,25.15
2023-05-20T17:21:29.871Z,25.08
2023-05-20T17:22:29.876Z,25.11
2023-05-20T17:23:29.867Z,25.07
2023-05-20T17:24:29.900Z,25.05
2023-05-20T17:25:29.944Z,25.05
2023-05-20T17:26:29.878Z,25.08
2023-05-20T17:27:29.873Z,25.08
2023-05-20T17:28:29.869Z,25.09
2023-05-20T17:29:29.869Z,25.05
2023-05-20T17:30:29.868Z,24.97
2023-05-20T17:31:29.868Z,25.01
2023-05-20T17:32:29.884Z,24.97
2023-05-20T17:33:29.917Z,24.92
2023-05-20T17:34:29.871Z,24.92
2023-05-20T17:35:29.866Z,24.97
2023-05-20T17:36:29.851Z,24.87